createdAt,value
2018-09-15T00:01:33.785Z,16.06
2018-09-15T00:04:03.038Z,16.06
2018-09-15T00:06:32.404Z,16.03
2018-09-15T00:09:01.705Z,16.01
2018-09-15T00:11:30.942Z,16.00
2018-09-15T00:14:00.182Z,15.98
2018-09-15T00:16:29.491Z,15.97
2018-09-15T00:18:58.841Z,15.97
2018-09-15T00:21:28.043Z,15.96
2018-09-15T00:23:57.338Z,15.95
2018-09-15T00:26:26.715Z,15.92
2018-09-15T00:28:55.945Z,15.91
2018-09-15T00:31:25.167Z,15.89
2018-09-15T00:33:54.410Z,15.86
2018-09-15T00:36:23.650Z,15.83
2018-09-15T00:38:52.934Z,15.79
2018-09-15T00:41:22.239Z,15.76
2018-09-15T00:43:51.490Z,15.76
2018-09-15T00:46:20.737Z,15.74
2018-09-15T00:48:49.997Z,15.74
2018-09-15T00:51:19.285Z,15.74
2018-09-15T00:53:48.842Z,15.74
2018-09-15T00:56:18.172Z,15.77
2018-09-15T00:58:47.900Z,15.79
2018-09-15T01:01:17.218Z,15.80
2018-09-15T01:03:46.542Z,15.80
2018-09-15T01:06:15.928Z,15.81
2018-09-15T01:08:45.257Z,15.79
2018-09-15T01:11:14.629Z,15.77
2018-09-15T01:13:43.869Z,15.79
2018-09-15T01:16:13.130Z,15.78
2018-09-15T01:18:42.362Z,15.78
2018-09-15T01:21:11.616Z,15.78
2018-09-15T01:23:40.963Z,15.78
2018-09-15T01:26:10.287Z,15.79
2018-09-15T01:28:39.458Z,15.78
2018-09-15T01:31:08.893Z,15.76
2018-09-15T01:33:38.134Z,15.77
2018-09-15T01:36:07.370Z,15.77
2018-09-15T01:38:36.760Z,15.77
2018-09-15T01:41:06.121Z,15.77
2018-09-15T01:43:35.470Z,15.78
2018-09-15T01:46:04.730Z,15.78
2018-09-15T01:48:34.013Z,15.78
2018-09-15T01:51:03.273Z,15.80
2018-09-15T01:53:32.499Z,15.80
2018-09-15T01:56:01.840Z,15.80
2018-09-15T01:58:31.135Z,15.79
2018-09-15T02:01:00.417Z,15.78
2018-09-15T02:03:29.773Z,15.77
2018-09-15T02:05:59.322Z,15.72
2018-09-15T02:08:28.647Z,15.67
2018-09-15T02:10:57.924Z,15.61
2018-09-15T02:13:27.282Z,15.57
2018-09-15T02:15:56.540Z,15.52
2018-09-15T02:18:25.782Z,15.49
2018-09-15T02:20:55.088Z,15.45
2018-09-15T02:23:24.338Z,15.41
2018-09-15T02:25:53.713Z,15.36
2018-09-15T02:28:22.985Z,15.33
2018-09-15T02:30:52.288Z,15.28
2018-09-15T02:33:21.523Z,15.23
2018-09-15T02:35:50.863Z,15.21
2018-09-15T02:38:20.188Z,15.18
2018-09-15T02:40:49.439Z,15.15
2018-09-15T02:43:18.713Z,15.13
2018-09-15T02:45:48.082Z,15.12
2018-09-15T02:48:17.311Z,15.11
2018-09-15T02:50:46.672Z,15.11
2018-09-15T02:53:17.473Z,15.13
2018-09-15T02:55:47.202Z,15.15
2018-09-15T02:58:16.510Z,15.17
2018-09-15T03:00:45.782Z,15.18
2018-09-15T03:03:15.042Z,15.22
2018-09-15T03:05:44.273Z,15.28
2018-09-15T03:08:13.610Z,15.33
2018-09-15T03:10:42.901Z,15.43
2018-09-15T03:13:12.848Z,15.48
2018-09-15T03:15:42.465Z,15.55
2018-09-15T03:18:11.833Z,15.58
2018-09-15T03:20:41.057Z,15.61
2018-09-15T03:23:10.942Z,15.50
2018-09-15T03:25:40.280Z,15.67
2018-09-15T03:28:09.616Z,15.66
2018-09-15T03:30:38.971Z,15.66
2018-09-15T03:33:08.461Z,15.66
2018-09-15T03:35:37.755Z,15.63
2018-09-15T03:38:07.020Z,15.60
2018-09-15T03:40:36.359Z,15.60
2018-09-15T03:43:05.857Z,15.61
2018-09-15T03:45:35.133Z,15.63
2018-09-15T03:48:04.879Z,15.67
2018-09-15T03:50:34.174Z,15.68
2018-09-15T03:53:03.529Z,15.69
2018-09-15T03:55:32.812Z,15.69
2018-09-15T03:58:02.080Z,15.69
2018-09-15T04:00:31.614Z,15.73
2018-09-15T04:03:01.004Z,15.74
2018-09-15T04:05:30.318Z,15.77
2018-09-15T04:07:59.572Z,15.83
2018-09-15T04:10:28.895Z,15.84
2018-09-15T04:12:58.226Z,15.86
2018-09-15T04:15:27.515Z,15.87
2018-09-15T04:17:57.397Z,15.86
2018-09-15T04:20:26.638Z,15.86
2018-09-15T04:22:55.889Z,15.86
2018-09-15T04:25:25.309Z,15.85
2018-09-15T04:27:54.576Z,15.82
2018-09-15T04:30:23.872Z,15.79
2018-09-15T04:32:53.200Z,15.77
2018-09-15T04:35:22.501Z,15.76
2018-09-15T04:37:51.792Z,15.74
2018-09-15T04:40:21.354Z,15.71
2018-09-15T04:42:50.538Z,15.71
2018-09-15T04:45:19.855Z,15.69
2018-09-15T04:47:49.428Z,15.68
2018-09-15T04:50:18.720Z,15.69
2018-09-15T04:52:48.347Z,15.69
2018-09-15T04:55:17.765Z,15.66
2018-09-15T04:57:47.024Z,15.64
2018-09-15T05:00:16.367Z,15.73
2018-09-15T05:02:45.614Z,15.67
2018-09-15T05:05:14.941Z,15.65
2018-09-15T05:07:44.164Z,15.62
2018-09-15T05:10:13.465Z,15.64
2018-09-15T05:12:42.802Z,15.65
2018-09-15T05:15:12.066Z,15.69
2018-09-15T05:17:41.284Z,15.73
2018-09-15T05:20:10.529Z,15.79
2018-09-15T05:22:39.831Z,15.83
2018-09-15T05:25:09.235Z,15.85
2018-09-15T05:27:38.526Z,15.90
2018-09-15T05:30:08.406Z,15.94
2018-09-15T05:32:37.702Z,16.01
2018-09-15T05:35:07.088Z,16.08
2018-09-15T05:37:36.327Z,16.16
2018-09-15T05:40:06.350Z,16.23
2018-09-15T05:42:35.713Z,16.41
2018-09-15T05:45:05.041Z,16.61
2018-09-15T05:47:34.309Z,16.79
2018-09-15T05:50:03.590Z,16.90
2018-09-15T05:52:32.822Z,16.94
2018-09-15T05:55:02.096Z,16.89
2018-09-15T05:57:31.412Z,16.80
2018-09-15T06:00:00.694Z,16.82
2018-09-15T06:02:29.956Z,16.81
2018-09-15T06:04:59.154Z,16.84
2018-09-15T06:07:28.510Z,16.79
2018-09-15T06:09:57.800Z,16.80
2018-09-15T06:12:27.021Z,16.83
2018-09-15T06:14:56.300Z,16.85
2018-09-15T06:17:25.499Z,16.86
2018-09-15T06:19:54.788Z,16.89
2018-09-15T06:22:24.022Z,16.93
2018-09-15T06:24:53.233Z,17.01
2018-09-15T06:27:22.445Z,17.03
2018-09-15T06:29:51.710Z,17.07
2018-09-15T06:32:20.898Z,17.14
2018-09-15T06:34:50.119Z,17.24
2018-09-15T06:37:19.326Z,17.35
2018-09-15T06:39:48.710Z,17.48
2018-09-15T06:42:18.002Z,17.45
2018-09-15T06:44:47.262Z,17.39
2018-09-15T06:47:16.500Z,17.35
2018-09-15T06:49:45.735Z,17.42
2018-09-15T06:52:15.115Z,17.42
2018-09-15T06:54:44.363Z,17.57
2018-09-15T06:57:13.598Z,17.89
2018-09-15T06:59:42.870Z,17.91
2018-09-15T07:02:12.196Z,18.16
2018-09-15T07:04:41.469Z,18.33
2018-09-15T07:07:11.778Z,18.35
2018-09-15T07:09:41.124Z,18.31
2018-09-15T07:12:10.366Z,18.34
2018-09-15T07:14:39.731Z,18.44
2018-09-15T07:17:09.337Z,18.60
2018-09-15T07:19:38.677Z,18.57
2018-09-15T07:22:08.036Z,18.64
2018-09-15T07:24:37.268Z,18.60
2018-09-15T07:27:06.688Z,18.56
2018-09-15T07:29:35.986Z,18.65
2018-09-15T07:32:05.256Z,18.72
2018-09-15T07:34:34.545Z,18.87
2018-09-15T07:37:03.843Z,19.06
2018-09-15T07:39:33.141Z,19.19
2018-09-15T07:42:02.374Z,19.30
2018-09-15T07:44:32.155Z,19.34
2018-09-15T07:47:01.492Z,19.46
2018-09-15T07:49:30.708Z,19.41
2018-09-15T07:51:59.993Z,19.20
2018-09-15T07:54:29.207Z,18.92
2018-09-15T07:56:58.959Z,18.78
2018-09-15T07:59:28.553Z,18.67
2018-09-15T08:01:57.914Z,18.62
2018-09-15T08:04:27.131Z,18.60
2018-09-15T08:06:56.386Z,18.61
2018-09-15T08:09:25.619Z,18.64
2018-09-15T08:11:54.900Z,18.75
2018-09-15T08:14:24.230Z,18.91
2018-09-15T08:16:53.471Z,19.02
2018-09-15T08:19:23.186Z,19.03
2018-09-15T08:21:52.481Z,19.08
2018-09-15T08:24:21.747Z,19.14
2018-09-15T08:26:51.064Z,19.16
2018-09-15T08:29:20.391Z,19.41
2018-09-15T08:31:50.267Z,19.54
2018-09-15T08:34:19.567Z,19.82
2018-09-15T08:36:48.907Z,19.76
2018-09-15T08:39:18.205Z,19.90
2018-09-15T08:41:47.471Z,20.07
2018-09-15T08:44:16.770Z,20.20
2018-09-15T08:46:46.049Z,20.20
2018-09-15T08:49:15.236Z,20.12
2018-09-15T08:51:44.534Z,20.07
2018-09-15T08:54:13.910Z,19.92
2018-09-15T08:56:43.100Z,19.90
2018-09-15T08:59:13.184Z,19.96
2018-09-15T09:01:42.464Z,20.08
2018-09-15T09:04:11.673Z,20.22
2018-09-15T09:06:41.017Z,20.29
2018-09-15T09:09:12.646Z,20.27
2018-09-15T09:11:41.876Z,20.45
2018-09-15T09:14:11.184Z,20.52
2018-09-15T09:16:40.537Z,20.69
2018-09-15T09:19:09.749Z,20.78
2018-09-15T09:21:39.046Z,20.77
2018-09-15T09:24:08.924Z,20.82
2018-09-15T09:26:38.311Z,20.90
2018-09-15T09:29:08.578Z,20.86
2018-09-15T09:31:37.806Z,20.76
2018-09-15T09:34:07.004Z,20.65
2018-09-15T09:36:36.269Z,20.53
2018-09-15T09:39:08.841Z,20.47
2018-09-15T09:41:38.403Z,20.51
2018-09-15T09:44:07.828Z,20.65
2018-09-15T09:46:37.385Z,20.64
2018-09-15T09:49:07.043Z,20.60
2018-09-15T09:51:36.262Z,20.71
2018-09-15T09:54:05.574Z,20.69
2018-09-15T09:56:34.836Z,20.80
2018-09-15T09:59:04.049Z,20.77
2018-09-15T10:01:38.474Z,20.82
2018-09-15T10:04:07.680Z,20.66
2018-09-15T10:06:36.964Z,20.54
2018-09-15T10:09:09.143Z,20.54
2018-09-15T10:11:39.458Z,20.51
2018-09-15T10:14:08.707Z,20.38
2018-09-15T10:16:38.045Z,20.43
2018-09-15T10:19:12.048Z,20.53
2018-09-15T10:21:56.897Z,20.79
2018-09-15T10:24:26.207Z,21.15
2018-09-15T10:26:55.668Z,21.28
2018-09-15T10:29:25.417Z,21.17
2018-09-15T10:31:54.737Z,21.27
2018-09-15T10:34:24.020Z,21.28
2018-09-15T10:36:53.274Z,21.48
2018-09-15T10:39:22.536Z,21.49
2018-09-15T10:41:51.743Z,21.67
2018-09-15T10:44:21.008Z,21.74
2018-09-15T10:46:50.256Z,21.73
2018-09-15T10:49:19.446Z,21.59
2018-09-15T10:51:48.884Z,21.36
2018-09-15T10:54:18.062Z,21.38
2018-09-15T10:56:47.337Z,21.52
2018-09-15T10:59:16.581Z,21.87
2018-09-15T11:01:45.925Z,22.18
2018-09-15T11:04:15.203Z,22.62
2018-09-15T11:06:44.720Z,23.14
2018-09-15T11:09:14.090Z,23.55
2018-09-15T11:11:43.355Z,23.51
2018-09-15T11:14:12.669Z,23.60
2018-09-15T11:16:41.954Z,23.62
2018-09-15T11:19:11.430Z,23.91
2018-09-15T11:21:40.701Z,24.36
2018-09-15T11:24:09.961Z,24.65
2018-09-15T11:26:39.277Z,24.84
2018-09-15T11:29:08.669Z,25.01
2018-09-15T11:31:37.926Z,24.91
2018-09-15T11:34:07.292Z,24.63
2018-09-15T11:36:36.496Z,24.48
2018-09-15T11:39:08.702Z,24.51
2018-09-15T11:41:38.057Z,24.38
2018-09-15T11:44:07.503Z,24.38
2018-09-15T11:46:38.145Z,24.25
2018-09-15T11:49:07.780Z,24.18
2018-09-15T11:51:37.117Z,24.12
2018-09-15T11:54:06.373Z,24.34
2018-09-15T11:56:35.585Z,24.15
2018-09-15T12:24:26.808Z,25.14
2018-09-15T12:26:56.946Z,24.97
2018-09-15T12:29:26.051Z,24.95
2018-09-15T12:31:55.297Z,24.81
2018-09-15T12:34:25.440Z,24.62
2018-09-15T12:36:54.752Z,24.33
2018-09-15T12:39:24.520Z,24.25
2018-09-15T12:41:53.709Z,24.38
2018-09-15T12:44:22.865Z,24.58
2018-09-15T12:46:53.142Z,24.68
2018-09-15T12:49:22.414Z,24.79
2018-09-15T12:51:51.807Z,24.91
2018-09-15T12:54:20.937Z,25.00
2018-09-15T12:56:50.153Z,25.03
2018-09-15T12:59:19.446Z,25.13
2018-09-15T13:01:49.112Z,25.24
2018-09-15T13:04:18.334Z,25.21
2018-09-15T13:06:47.871Z,25.11
2018-09-15T13:09:17.234Z,25.18
2018-09-15T13:11:47.362Z,25.29
2018-09-15T13:14:16.572Z,25.15
2018-09-15T13:16:45.847Z,25.09
2018-09-15T13:19:15.106Z,24.97
2018-09-15T13:21:44.378Z,24.97
2018-09-15T13:24:14.414Z,24.81
2018-09-15T13:26:43.796Z,24.71
2018-09-15T13:29:12.971Z,24.67
2018-09-15T13:31:43.002Z,24.62
2018-09-15T13:34:12.214Z,24.52
2018-09-15T13:36:42.110Z,24.71
2018-09-15T13:39:12.387Z,24.71
2018-09-15T13:41:41.613Z,24.63
2018-09-15T13:44:10.842Z,24.56
2018-09-15T13:46:40.052Z,24.58
2018-09-15T13:49:09.322Z,24.82
2018-09-15T13:51:38.522Z,24.92
2018-09-15T13:54:11.947Z,25.02
2018-09-15T13:56:41.120Z,24.85
2018-09-15T13:59:10.266Z,24.92
2018-09-15T14:01:39.599Z,25.06
2018-09-15T14:04:08.951Z,25.08
2018-09-15T14:06:38.173Z,25.06
2018-09-15T14:09:09.666Z,25.03
2018-09-15T14:11:38.985Z,25.07
2018-09-15T14:14:08.425Z,25.10
2018-09-15T14:16:37.750Z,25.25
2018-09-15T14:19:07.394Z,25.20
2018-09-15T14:21:36.644Z,25.20
2018-09-15T14:24:05.930Z,25.14
2018-09-15T14:26:35.131Z,25.01
2018-09-15T14:29:04.489Z,24.87
2018-09-15T14:31:34.116Z,24.74
2018-09-15T14:34:03.294Z,24.58
2018-09-15T14:36:33.338Z,24.51
2018-09-15T14:39:02.613Z,24.37
2018-09-15T14:41:31.768Z,24.30
2018-09-15T14:44:00.865Z,24.30
2018-09-15T14:46:30.077Z,24.28
2018-09-15T14:48:59.276Z,24.23
2018-09-15T14:51:28.381Z,24.14
2018-09-15T14:53:57.537Z,24.06
2018-09-15T14:56:26.708Z,24.00
2018-09-15T14:58:55.942Z,23.95
2018-09-15T15:01:25.482Z,23.86
2018-09-15T15:03:54.662Z,23.97
2018-09-15T15:06:24.596Z,23.94
2018-09-15T15:08:53.723Z,23.96
2018-09-15T15:11:22.845Z,23.96
2018-09-15T15:13:52.068Z,24.05
2018-09-15T15:16:21.609Z,24.04
2018-09-15T15:18:50.753Z,24.07
2018-09-15T15:21:19.953Z,24.00
2018-09-15T15:23:49.158Z,23.94
2018-09-15T15:26:18.307Z,23.88
2018-09-15T15:28:47.403Z,23.78
2018-09-15T15:31:16.689Z,23.74
2018-09-15T15:33:46.689Z,23.66
2018-09-15T15:36:15.924Z,23.62
2018-09-15T15:38:45.092Z,23.60
2018-09-15T15:41:14.236Z,23.65
2018-09-15T15:43:43.468Z,23.55
2018-09-15T15:46:12.602Z,23.46
2018-09-15T15:48:41.717Z,23.35
2018-09-15T15:51:10.972Z,23.30
2018-09-15T15:53:40.242Z,23.23
2018-09-15T15:56:09.479Z,23.23
2018-09-15T15:58:38.810Z,23.14
2018-09-15T16:01:07.978Z,23.06
2018-09-15T16:03:37.095Z,22.92
2018-09-15T16:06:06.202Z,22.89
2018-09-15T16:08:36.001Z,22.90
2018-09-15T16:11:05.418Z,22.83
2018-09-15T16:13:35.071Z,22.73
2018-09-15T16:16:04.201Z,22.63
2018-09-15T16:18:33.308Z,22.54
2018-09-15T16:21:02.442Z,22.47
2018-09-15T16:23:31.703Z,22.42
2018-09-15T16:26:00.881Z,22.31
2018-09-15T16:28:30.064Z,22.14
2018-09-15T16:30:59.274Z,22.04
2018-09-15T16:33:28.447Z,22.00
2018-09-15T16:35:57.647Z,22.02
2018-09-15T16:38:26.846Z,22.03
2018-09-15T16:40:56.013Z,21.94
2018-09-15T16:43:25.150Z,21.81
2018-09-15T16:45:54.286Z,21.67
2018-09-15T16:48:23.453Z,21.58
2018-09-15T16:50:52.583Z,21.47
2018-09-15T16:53:21.822Z,21.40
2018-09-15T16:55:50.940Z,21.35
2018-09-15T16:58:20.110Z,21.27
2018-09-15T17:00:49.347Z,21.17
2018-09-15T17:03:18.474Z,21.07
2018-09-15T17:05:47.578Z,20.96
2018-09-15T17:08:16.772Z,20.86
2018-09-15T17:10:46.045Z,20.77
2018-09-15T17:13:15.229Z,20.68
2018-09-15T17:15:45.070Z,20.61
2018-09-15T17:18:14.168Z,20.51
2018-09-15T17:20:43.334Z,20.43
2018-09-15T17:23:12.933Z,20.37
2018-09-15T17:25:42.258Z,20.30
2018-09-15T17:28:11.458Z,20.23
2018-09-15T17:30:40.658Z,20.15
2018-09-15T17:33:09.927Z,20.04
2018-09-15T17:35:39.117Z,19.96
2018-09-15T17:38:08.244Z,19.90
2018-09-15T17:40:37.405Z,19.82
2018-09-15T17:43:06.686Z,19.73
2018-09-15T17:45:35.990Z,19.66
2018-09-15T17:48:05.341Z,19.61
2018-09-15T17:50:34.554Z,19.54
2018-09-15T17:53:03.733Z,19.53
2018-09-15T17:55:33.061Z,19.48
2018-09-15T17:58:02.213Z,19.42
2018-09-15T18:00:35.181Z,19.38
2018-09-15T18:03:04.893Z,19.36
2018-09-15T18:05:34.081Z,19.36
2018-09-15T18:08:03.740Z,19.34
2018-09-15T18:10:33.556Z,19.28
2018-09-15T18:13:02.775Z,19.22
2018-09-15T18:15:32.056Z,19.19
2018-09-15T18:18:01.254Z,19.16
2018-09-15T18:20:30.564Z,19.15
2018-09-15T18:22:59.879Z,19.13
2018-09-15T18:25:29.174Z,19.10
2018-09-15T18:27:58.408Z,19.07
2018-09-15T18:30:27.605Z,19.02
2018-09-15T18:32:56.918Z,18.98
2018-09-15T18:35:26.131Z,18.93
2018-09-15T18:37:55.491Z,18.87
2018-09-15T18:40:24.745Z,18.85
2018-09-15T18:42:54.033Z,18.81
2018-09-15T18:45:23.338Z,18.76
2018-09-15T18:47:52.646Z,18.71
2018-09-15T18:50:21.875Z,18.67
2018-09-15T18:52:51.107Z,18.66
2018-09-15T18:55:20.395Z,18.64
2018-09-15T18:57:49.796Z,18.63
2018-09-15T19:00:18.982Z,18.60
2018-09-15T19:02:48.305Z,18.53
2018-09-15T19:05:17.557Z,18.41
2018-09-15T19:07:46.830Z,18.36
2018-09-15T19:10:16.070Z,18.33
2018-09-15T19:12:45.421Z,18.33
2018-09-15T19:15:14.677Z,18.34
2018-09-15T19:17:43.920Z,18.35
2018-09-15T19:20:13.156Z,18.34
2018-09-15T19:22:42.326Z,18.33
2018-09-15T19:25:11.571Z,18.34
2018-09-15T19:27:40.791Z,18.35
2018-09-15T19:30:10.038Z,18.34
2018-09-15T19:32:39.427Z,18.32
2018-09-15T19:35:08.786Z,18.29
2018-09-15T19:37:38.188Z,18.27
2018-09-15T19:40:07.465Z,18.26
2018-09-15T19:42:36.661Z,18.29
2018-09-15T19:45:06.209Z,18.29
2018-09-15T19:47:35.422Z,18.30
2018-09-15T19:50:04.742Z,18.31
2018-09-15T19:52:34.194Z,18.33
2018-09-15T19:55:03.405Z,18.34
2018-09-15T19:57:32.649Z,18.35
2018-09-15T20:00:01.822Z,18.35
2018-09-15T20:02:31.131Z,18.36
2018-09-15T20:05:00.373Z,18.35
2018-09-15T20:07:29.608Z,18.35
2018-09-15T20:09:58.869Z,18.36
2018-09-15T20:12:30.797Z,18.37
2018-09-15T20:15:02.621Z,18.35
2018-09-15T20:17:30.696Z,18.31
2018-09-15T20:19:58.682Z,18.29
2018-09-15T20:22:27.916Z,18.24
2018-09-15T20:24:57.226Z,18.22
2018-09-15T20:27:26.306Z,18.22
2018-09-15T20:29:55.570Z,18.20
2018-09-15T20:32:24.879Z,18.22
2018-09-15T20:34:54.136Z,18.22
2018-09-15T20:37:23.356Z,18.20
2018-09-15T20:39:52.867Z,18.18
2018-09-15T20:42:22.201Z,18.18
2018-09-15T20:44:51.452Z,18.19
2018-09-15T20:47:20.682Z,18.21
2018-09-15T20:49:49.922Z,18.21
2018-09-15T20:52:19.213Z,18.22
2018-09-15T20:54:48.485Z,18.22
2018-09-15T20:57:17.862Z,18.24
2018-09-15T20:59:47.056Z,18.25
2018-09-15T21:02:16.328Z,18.24
2018-09-15T21:04:45.544Z,18.25
2018-09-15T21:07:14.807Z,18.27
2018-09-15T21:09:44.083Z,18.26
2018-09-15T21:12:13.302Z,18.27
2018-09-15T21:14:42.648Z,18.23
2018-09-15T21:17:11.879Z,18.21
2018-09-15T21:19:41.216Z,18.15
2018-09-15T21:22:10.445Z,18.11
2018-09-15T21:24:39.663Z,18.08
2018-09-15T21:27:09.044Z,18.06
2018-09-15T21:29:38.293Z,18.06
2018-09-15T21:32:07.478Z,18.05
2018-09-15T21:34:36.661Z,18.04
2018-09-15T21:37:06.416Z,18.03
2018-09-15T21:39:35.615Z,18.03
2018-09-15T21:42:04.886Z,18.03
2018-09-15T21:44:34.293Z,18.02
2018-09-15T21:47:03.509Z,18.01
2018-09-15T21:49:32.704Z,18.01
2018-09-15T21:52:01.980Z,18.02
2018-09-15T21:54:31.228Z,18.00
2018-09-15T21:57:00.439Z,17.95
2018-09-15T21:59:29.664Z,17.95
2018-09-15T22:01:58.986Z,17.95
2018-09-15T22:04:28.426Z,17.94
2018-09-15T22:06:57.761Z,17.94
2018-09-15T22:09:27.070Z,17.91
2018-09-15T22:11:56.536Z,17.92
2018-09-15T22:14:25.778Z,17.93
2018-09-15T22:16:55.055Z,17.95
2018-09-15T22:19:24.342Z,17.96
2018-09-15T22:21:56.525Z,17.97
2018-09-15T22:24:25.750Z,17.97
2018-09-15T22:26:55.255Z,17.94
2018-09-15T22:29:24.517Z,17.94
2018-09-15T22:31:53.781Z,17.90
2018-09-15T22:34:23.009Z,17.86
2018-09-15T22:36:52.350Z,17.80
2018-09-15T22:39:21.637Z,17.75
2018-09-15T22:41:50.886Z,17.72
2018-09-15T22:44:20.298Z,17.70
2018-09-15T22:46:49.564Z,17.69
2018-09-15T22:49:18.791Z,17.65
2018-09-15T22:51:48.238Z,17.58
2018-09-15T22:54:17.461Z,17.49
2018-09-15T22:56:46.693Z,17.44
2018-09-15T22:59:16.005Z,17.41
2018-09-15T23:01:45.240Z,17.37
2018-09-15T23:04:15.532Z,17.28
2018-09-15T23:06:44.949Z,17.20
2018-09-15T23:09:14.167Z,17.15
2018-09-15T23:11:43.391Z,17.12
2018-09-15T23:14:12.741Z,17.05
2018-09-15T23:16:41.930Z,16.94
2018-09-15T23:19:11.217Z,16.88
2018-09-15T23:21:40.928Z,16.88
2018-09-15T23:24:10.169Z,16.83
2018-09-15T23:26:39.457Z,16.78
2018-09-15T23:29:08.820Z,16.74
2018-09-15T23:31:38.068Z,16.70
2018-09-15T23:34:07.316Z,16.66
2018-09-15T23:36:36.559Z,16.63
2018-09-15T23:39:08.446Z,16.62
2018-09-15T23:41:37.700Z,16.60
2018-09-15T23:44:06.995Z,16.57
2018-09-15T23:46:36.183Z,16.56
2018-09-15T23:49:05.576Z,16.55
2018-09-15T23:51:34.873Z,16.56
2018-09-15T23:54:04.139Z,16.58
2018-09-15T23:56:33.423Z,16.63
2018-09-15T23:59:02.605Z,16.65
